createdAt,value
2022-11-19T00:00:02.881Z,23.65
2022-11-19T00:02:32.013Z,22.42
2022-11-19T00:05:05.426Z,22.83
2022-11-19T00:07:34.075Z,21.15
2022-11-19T00:10:02.453Z,21.58
2022-11-19T00:12:49.339Z,22.65
2022-11-19T00:15:18.052Z,23.67
2022-11-19T00:17:46.683Z,22.73
2022-11-19T00:20:18.950Z,22.73
2022-11-19T00:22:52.205Z,22.00
2022-11-19T00:25:22.461Z,24.10
2022-11-19T00:27:51.498Z,22.48
2022-11-19T00:30:46.408Z,22.92
2022-11-19T00:33:10.137Z,22.67
2022-11-19T00:35:43.531Z,22.90
2022-11-19T00:38:12.620Z,23.55
2022-11-19T00:40:41.508Z,23.95
2022-11-19T00:43:27.706Z,24.15
2022-11-19T00:45:56.921Z,24.55
2022-11-19T00:48:26.447Z,26.27
2022-11-19T00:51:00.019Z,25.00
2022-11-19T00:53:29.617Z,25.30
2022-11-19T00:56:03.839Z,24.80
2022-11-19T00:58:33.123Z,24.33
2022-11-19T01:01:02.939Z,25.08
2022-11-19T01:03:31.983Z,25.95
2022-11-19T01:06:15.253Z,26.27
2022-11-19T01:08:50.152Z,25.67
2022-11-19T01:11:21.458Z,25.02
2022-11-19T01:13:52.382Z,25.35
2022-11-19T01:16:26.671Z,26.48
2022-11-19T01:18:56.183Z,26.83
2022-11-19T01:21:29.304Z,26.83
2022-11-19T01:23:59.114Z,27.55
2022-11-19T01:26:29.156Z,25.52
2022-11-19T01:28:58.657Z,27.42
2022-11-19T01:31:31.006Z,27.70
2022-11-19T01:34:00.953Z,27.50
2022-11-19T01:36:33.300Z,27.13
2022-11-19T01:39:02.661Z,27.55
2022-11-19T01:41:34.787Z,28.27
2022-11-19T01:44:05.582Z,28.20
2022-11-19T01:46:37.209Z,27.95
2022-11-19T01:49:18.995Z,28.77
2022-11-19T01:51:56.096Z,29.30
2022-11-19T01:54:32.529Z,28.52
2022-11-19T01:57:08.484Z,29.42
2022-11-19T01:59:37.747Z,30.20
2022-11-19T02:02:08.387Z,29.50
2022-11-19T02:04:38.009Z,30.05
2022-11-19T02:07:11.140Z,31.20
2022-11-19T02:09:41.650Z,31.73
2022-11-19T02:12:29.788Z,31.80
2022-11-19T02:15:17.910Z,30.20
2022-11-19T02:18:08.207Z,30.42
2022-11-19T02:20:53.989Z,29.02
2022-11-19T02:24:13.721Z,29.83
2022-11-19T02:27:27.006Z,29.48
2022-11-19T02:30:25.825Z,30.00
2022-11-19T02:33:08.156Z,28.75
2022-11-19T02:35:56.549Z,28.75
2022-11-19T02:38:33.437Z,28.55
2022-11-19T02:41:31.284Z,27.75
2022-11-19T02:44:28.251Z,27.38
2022-11-19T02:47:01.047Z,27.95
2022-11-19T02:49:33.505Z,27.95
2022-11-19T02:52:02.638Z,26.60
2022-11-19T02:54:32.038Z,26.45
2022-11-19T02:57:06.005Z,26.90
2022-11-19T02:59:59.137Z,27.15
2022-11-19T03:02:53.052Z,26.35
2022-11-19T03:05:25.976Z,26.23
2022-11-19T03:07:55.891Z,25.27
2022-11-19T03:10:31.149Z,27.35
2022-11-19T03:16:15.812Z,25.25
2022-11-19T03:18:53.102Z,25.42
2022-11-19T03:21:26.271Z,26.10
2022-11-19T03:24:01.476Z,26.30
2022-11-19T03:26:36.589Z,24.73
2022-11-19T03:29:10.439Z,25.77
2022-11-19T03:31:42.490Z,25.25
2022-11-19T03:34:20.477Z,25.42
2022-11-19T03:36:55.093Z,25.92
2022-11-19T03:39:27.609Z,24.08
2022-11-19T03:41:58.538Z,23.98
2022-11-19T03:44:33.774Z,25.52
2022-11-19T03:49:42.097Z,23.83
2022-11-19T03:52:13.971Z,23.40
2022-11-19T03:54:43.778Z,23.67
2022-11-19T03:57:16.395Z,24.20
2022-11-19T03:59:45.025Z,22.52
2022-11-19T04:02:15.212Z,23.98
2022-11-19T04:04:45.108Z,23.52
2022-11-19T04:07:16.862Z,21.95
2022-11-19T04:09:45.758Z,21.55
2022-11-19T04:12:18.930Z,22.73
2022-11-19T04:14:48.320Z,22.00
2022-11-19T04:17:17.626Z,21.63
2022-11-19T04:19:47.421Z,20.85
2022-11-19T04:22:16.338Z,20.67
2022-11-19T04:24:44.737Z,21.60
2022-11-19T04:27:14.091Z,22.70
2022-11-19T04:29:42.513Z,21.40
2022-11-19T04:32:10.957Z,21.33
2022-11-19T04:34:39.713Z,19.48
2022-11-19T04:37:09.780Z,20.17
2022-11-19T04:39:38.144Z,20.13
2022-11-19T04:42:06.844Z,19.85
2022-11-19T04:44:35.508Z,21.02
2022-11-19T04:47:03.734Z,18.65
2022-11-19T04:49:31.878Z,18.65
2022-11-19T04:52:02.115Z,18.50
2022-11-19T04:54:32.060Z,18.60
2022-11-19T04:57:00.522Z,17.35
2022-11-19T04:59:29.672Z,17.77
2022-11-19T05:02:04.630Z,17.13
2022-11-19T05:04:32.824Z,19.13
2022-11-19T05:07:01.456Z,16.77
2022-11-19T05:09:31.427Z,17.13
2022-11-19T05:11:59.979Z,17.48
2022-11-19T05:14:30.642Z,16.65
2022-11-19T05:16:59.253Z,17.63
2022-11-19T05:19:27.710Z,16.30
2022-11-19T05:21:56.225Z,18.13
2022-11-19T05:24:25.182Z,17.45
2022-11-19T05:26:57.519Z,17.13
2022-11-19T05:29:26.116Z,15.30
2022-11-19T05:31:55.531Z,16.48
2022-11-19T05:34:24.498Z,15.52
2022-11-19T05:36:53.104Z,16.45
2022-11-19T05:39:22.732Z,16.20
2022-11-19T05:41:51.406Z,15.98
2022-11-19T05:44:21.313Z,15.88
2022-11-19T05:46:49.877Z,15.90
2022-11-19T05:49:18.856Z,14.88
2022-11-19T05:51:48.252Z,14.95
2022-11-19T05:54:16.798Z,13.82
2022-11-19T05:56:46.532Z,15.20
2022-11-19T05:59:15.667Z,13.98
2022-11-19T06:01:45.374Z,14.05
2022-11-19T06:04:14.002Z,13.63
2022-11-19T06:06:42.556Z,14.55
2022-11-19T06:09:11.994Z,14.75
2022-11-19T06:11:50.490Z,14.73
2022-11-19T06:14:22.494Z,14.18
2022-11-19T06:16:53.788Z,13.68
2022-11-19T06:19:23.044Z,14.60
2022-11-19T06:21:52.794Z,15.45
2022-11-19T06:24:21.739Z,14.75
2022-11-19T06:26:50.595Z,15.75
2022-11-19T06:29:20.981Z,15.18
2022-11-19T06:31:51.363Z,15.60
2022-11-19T06:34:20.448Z,14.77
2022-11-19T06:36:50.704Z,15.43
2022-11-19T06:39:20.753Z,16.52
2022-11-19T06:41:49.802Z,15.82
2022-11-19T06:44:19.338Z,16.60
2022-11-19T06:46:49.058Z,17.15
2022-11-19T06:49:20.456Z,15.95
2022-11-19T06:51:51.774Z,16.15
2022-11-19T06:54:20.130Z,16.00
2022-11-19T06:56:48.925Z,16.17
2022-11-19T06:59:17.982Z,15.88
2022-11-19T07:01:46.369Z,15.68
2022-11-19T07:04:16.233Z,16.15
2022-11-19T07:06:46.395Z,15.90
2022-11-19T07:09:15.243Z,16.77
2022-11-19T07:11:43.622Z,16.35
2022-11-19T07:14:12.387Z,16.90
2022-11-19T07:16:40.975Z,15.73
2022-11-19T07:19:10.062Z,16.77
2022-11-19T07:21:38.907Z,16.08
2022-11-19T07:24:11.665Z,16.95
2022-11-19T07:26:40.429Z,15.38
2022-11-19T07:29:10.235Z,16.48
2022-11-19T07:31:39.121Z,17.70
2022-11-19T07:34:08.457Z,17.77
2022-11-19T07:36:37.628Z,17.42
2022-11-19T07:39:11.887Z,17.38
2022-11-19T07:41:57.774Z,17.00
2022-11-19T07:44:26.148Z,17.55
2022-11-19T07:46:55.730Z,17.92
2022-11-19T07:49:25.026Z,18.90
2022-11-19T07:51:55.008Z,17.67
2022-11-19T07:54:28.191Z,18.88
2022-11-19T07:56:57.426Z,18.42
2022-11-19T07:59:27.056Z,17.35
2022-11-19T08:01:56.421Z,17.20
2022-11-19T08:04:26.147Z,18.25
2022-11-19T08:06:54.863Z,18.42
2022-11-19T08:09:25.309Z,19.00
2022-11-19T08:11:53.709Z,18.83
2022-11-19T08:14:25.505Z,18.40
2022-11-19T08:17:11.865Z,18.50
2022-11-19T08:19:42.937Z,19.05
2022-11-19T08:22:16.278Z,18.58
2022-11-19T08:24:49.496Z,18.48
2022-11-19T08:27:18.675Z,17.77
2022-11-19T08:29:48.032Z,18.42
2022-11-19T08:32:18.368Z,17.95
2022-11-19T08:34:47.142Z,17.52
2022-11-19T08:37:18.809Z,17.15
2022-11-19T08:39:51.132Z,17.08
2022-11-19T08:42:37.669Z,15.65
2022-11-19T08:45:11.312Z,15.15
2022-11-19T08:47:40.180Z,16.33
2022-11-19T08:50:13.449Z,16.15
2022-11-19T08:52:45.109Z,16.35
2022-11-19T08:55:15.657Z,16.05
2022-11-19T08:57:44.897Z,15.43
2022-11-19T09:00:18.147Z,15.82
2022-11-19T09:02:49.130Z,15.82
2022-11-19T09:05:20.332Z,14.55
2022-11-19T09:07:48.963Z,15.38
2022-11-19T09:10:20.281Z,15.48
2022-11-19T09:12:49.657Z,15.00
2022-11-19T09:15:19.498Z,15.95
2022-11-19T09:17:49.015Z,14.30
2022-11-19T09:20:18.501Z,15.80
2022-11-19T09:22:50.114Z,14.32
2022-11-19T09:25:27.168Z,14.23
2022-11-19T09:28:02.778Z,13.90
2022-11-19T09:30:36.360Z,14.65
2022-11-19T09:33:05.785Z,13.88
2022-11-19T09:35:34.769Z,14.55
2022-11-19T09:38:11.424Z,13.52
2022-11-19T09:40:47.088Z,13.38
2022-11-19T09:43:25.928Z,14.25
2022-11-19T09:46:28.313Z,14.10
2022-11-19T09:49:01.473Z,13.93
2022-11-19T09:51:39.517Z,13.48
2022-11-19T09:54:17.205Z,12.52
2022-11-19T09:56:59.088Z,11.95
2022-11-19T09:59:39.847Z,11.57
2022-11-19T10:02:19.899Z,11.98
2022-11-19T10:04:54.021Z,12.25
2022-11-19T10:07:43.057Z,11.13
2022-11-19T10:10:36.774Z,11.63
2022-11-19T10:13:30.327Z,11.52
2022-11-19T10:16:20.013Z,12.15
2022-11-19T10:19:04.208Z,11.10
2022-11-19T10:21:42.056Z,10.93
2022-11-19T10:24:28.698Z,10.68
2022-11-19T10:28:02.389Z,10.18
2022-11-19T10:30:32.894Z,9.77
2022-11-19T10:33:09.815Z,10.68
2022-11-19T10:35:45.139Z,10.40
2022-11-19T10:41:01.334Z,9.85
2022-11-19T10:43:41.902Z,9.52
2022-11-19T10:46:21.438Z,9.75
2022-11-19T10:48:54.111Z,9.60
2022-11-19T10:51:31.639Z,9.27
2022-11-19T10:54:02.856Z,8.77
2022-11-19T10:56:39.222Z,8.70
2022-11-19T10:59:16.795Z,8.63
2022-11-19T11:01:52.872Z,8.38
2022-11-19T11:04:24.932Z,8.35
2022-11-19T11:06:57.436Z,8.20
2022-11-19T11:09:39.232Z,8.43
2022-11-19T11:12:45.000Z,7.45
2022-11-19T11:15:18.975Z,7.33
2022-11-19T11:18:04.383Z,8.10
2022-11-19T11:20:38.293Z,8.10
2022-11-19T11:23:16.067Z,7.38
2022-11-19T11:25:55.900Z,6.88
2022-11-19T11:28:25.937Z,7.60
2022-11-19T11:30:58.618Z,7.15
2022-11-19T11:33:36.722Z,7.15
2022-11-19T11:36:12.571Z,7.30
2022-11-19T11:38:47.118Z,6.85
2022-11-19T11:42:03.697Z,7.43
2022-11-19T11:44:23.868Z,7.07
2022-11-19T11:46:57.002Z,7.20
2022-11-19T11:49:35.233Z,7.20
2022-11-19T11:52:29.662Z,5.97
2022-11-19T11:55:02.208Z,5.78
2022-11-19T11:57:34.331Z,6.32
2022-11-19T12:00:34.230Z,6.45
2022-11-19T12:03:04.960Z,6.53
2022-11-19T12:05:58.338Z,5.53
2022-11-19T12:08:50.174Z,6.05
2022-11-19T12:11:28.004Z,5.57
2022-11-19T12:14:09.573Z,4.78
2022-11-19T12:16:52.280Z,5.20
2022-11-19T12:20:03.055Z,4.68
2022-11-19T12:22:51.612Z,4.50
2022-11-19T12:25:31.534Z,4.82
2022-11-19T12:28:28.417Z,5.05
2022-11-19T12:31:10.499Z,5.00
2022-11-19T12:34:07.249Z,4.95
2022-11-19T12:36:49.700Z,5.22
2022-11-19T12:39:36.910Z,5.22
2022-11-19T12:42:29.895Z,5.15
2022-11-19T12:45:10.187Z,4.90
2022-11-19T12:48:02.260Z,4.75
2022-11-19T12:50:39.106Z,5.18
2022-11-19T12:53:23.656Z,5.20
2022-11-19T12:56:08.224Z,5.30
2022-11-19T12:58:51.927Z,5.05
2022-11-19T13:01:27.128Z,4.97
2022-11-19T13:04:06.232Z,4.32
2022-11-19T13:06:42.419Z,5.00
2022-11-19T13:09:19.611Z,4.65
2022-11-19T13:11:55.532Z,4.78
2022-11-19T13:14:41.164Z,5.68
2022-11-19T13:17:22.271Z,5.15
2022-11-19T13:20:00.392Z,4.82
2022-11-19T13:22:37.800Z,4.53
2022-11-19T13:25:16.952Z,5.07
2022-11-19T13:27:48.704Z,4.90
2022-11-19T13:30:51.949Z,4.47
2022-11-19T13:33:34.299Z,4.32
2022-11-19T13:36:16.450Z,4.47
2022-11-19T13:38:52.819Z,4.32
2022-11-19T13:41:35.486Z,4.32
2022-11-19T13:44:38.103Z,4.45
2022-11-19T13:47:20.666Z,4.82
2022-11-19T13:50:01.199Z,4.53
2022-11-19T13:52:45.368Z,4.80
2022-11-19T13:55:33.791Z,5.53
2022-11-19T13:58:31.492Z,4.60
2022-11-19T14:01:51.250Z,4.50
2022-11-19T14:06:03.599Z,4.75
2022-11-19T14:08:54.671Z,4.32
2022-11-19T14:12:06.325Z,4.28
2022-11-19T14:15:19.665Z,4.22
2022-11-19T14:18:15.673Z,4.53
2022-11-19T14:21:03.691Z,4.22
2022-11-19T14:24:05.706Z,4.45
2022-11-19T14:27:17.656Z,4.40
2022-11-19T14:30:08.997Z,4.30
2022-11-19T14:32:56.307Z,4.28
2022-11-19T14:35:44.414Z,3.83
2022-11-19T14:38:47.727Z,3.72
2022-11-19T14:41:32.383Z,4.45
2022-11-19T14:44:36.677Z,4.57
2022-11-19T14:47:37.036Z,4.45
2022-11-19T14:50:27.434Z,4.50
2022-11-19T14:56:40.520Z,4.50
2022-11-19T14:59:23.806Z,4.30
2022-11-19T15:01:59.484Z,4.05
2022-11-19T15:07:18.110Z,4.50
2022-11-19T15:10:32.346Z,3.92
2022-11-19T15:13:26.044Z,4.40
2022-11-19T15:16:03.143Z,4.03
2022-11-19T15:19:29.044Z,3.65
2022-11-19T15:22:27.018Z,3.97
2022-11-19T15:25:36.474Z,4.32
2022-11-19T15:28:48.894Z,4.13
2022-11-19T15:31:37.326Z,4.40
2022-11-19T15:34:49.192Z,4.97
2022-11-19T15:37:39.928Z,4.82
2022-11-19T15:40:17.634Z,4.80
2022-11-19T15:42:54.701Z,5.35
2022-11-19T15:45:28.361Z,5.18
2022-11-19T15:48:09.496Z,5.70
2022-11-19T15:50:38.809Z,5.70
2022-11-19T15:53:21.608Z,5.45
2022-11-19T15:55:55.747Z,5.28
2022-11-19T15:58:31.189Z,5.50
2022-11-19T16:01:00.050Z,5.45
2022-11-19T16:03:32.431Z,5.45
2022-11-19T16:06:12.074Z,6.88
2022-11-19T16:08:45.836Z,6.65
2022-11-19T16:11:35.692Z,7.32
2022-11-19T16:14:43.164Z,6.03
2022-11-19T16:17:43.198Z,7.68
2022-11-19T16:20:22.616Z,7.13
2022-11-19T16:22:59.492Z,6.95
2022-11-19T16:25:35.983Z,7.70
2022-11-19T16:28:09.738Z,6.95
2022-11-19T16:30:49.003Z,13.52
2022-11-19T16:33:21.041Z,11.10
2022-11-19T16:35:53.310Z,12.40
2022-11-19T16:38:28.721Z,10.57
2022-11-19T16:43:48.698Z,13.18
2022-11-19T16:46:22.935Z,29.23
2022-11-19T16:48:58.666Z,27.52
2022-11-19T16:51:39.883Z,17.83
2022-11-19T16:54:11.596Z,44.95
2022-11-19T16:56:46.133Z,36.47
2022-11-19T16:59:22.254Z,72.90
2022-11-19T17:01:56.554Z,46.38
2022-11-19T17:04:29.449Z,29.17
2022-11-19T17:06:59.474Z,17.77
2022-11-19T17:09:44.626Z,24.17
2022-11-19T17:12:29.202Z,24.17
2022-11-19T17:15:56.174Z,22.85
2022-11-19T17:18:19.731Z,21.73
2022-11-19T17:20:54.920Z,24.15
2022-11-19T17:25:58.407Z,22.92
2022-11-19T17:28:38.259Z,19.45
2022-11-19T17:31:16.486Z,11.98
2022-11-19T17:33:54.159Z,11.07
2022-11-19T17:36:25.918Z,9.95
2022-11-19T17:38:55.193Z,10.07
2022-11-19T17:41:45.333Z,17.60
2022-11-19T17:44:40.428Z,11.52
2022-11-19T17:47:22.173Z,13.07
2022-11-19T17:49:53.068Z,11.43
2022-11-19T17:52:25.926Z,10.95
2022-11-19T17:54:58.325Z,10.13
2022-11-19T17:57:26.864Z,9.98
2022-11-19T17:59:57.246Z,10.55
2022-11-19T18:02:29.230Z,10.55
2022-11-19T18:04:58.252Z,10.73
2022-11-19T18:07:27.235Z,11.23
2022-11-19T18:09:55.984Z,9.82
2022-11-19T18:12:25.057Z,11.07
2022-11-19T18:14:56.790Z,10.95
2022-11-19T18:17:31.039Z,10.57
2022-11-19T18:20:00.213Z,10.60
2022-11-19T18:22:28.944Z,11.38
2022-11-19T18:24:57.404Z,12.98
2022-11-19T18:27:26.090Z,13.07
2022-11-19T18:29:54.953Z,12.75
2022-11-19T18:32:23.674Z,14.82
2022-11-19T18:35:00.628Z,12.77
2022-11-19T18:37:38.248Z,11.60
2022-11-19T18:40:13.875Z,11.30
2022-11-19T18:43:07.818Z,13.77
2022-11-19T18:45:35.923Z,12.73
2022-11-19T18:48:06.423Z,14.30
2022-11-19T18:50:37.494Z,11.73
2022-11-19T18:53:07.294Z,12.90
2022-11-19T18:55:41.603Z,16.05
2022-11-19T18:58:10.600Z,13.30
2022-11-19T19:00:39.504Z,12.27
2022-11-19T19:03:12.383Z,12.80
2022-11-19T19:05:50.504Z,12.30
2022-11-19T19:08:20.724Z,12.27
2022-11-19T19:10:51.508Z,13.30
2022-11-19T19:13:19.508Z,13.25
2022-11-19T19:15:49.541Z,11.85
2022-11-19T19:18:18.884Z,12.25
2022-11-19T19:20:57.585Z,13.48
2022-11-19T19:23:27.966Z,11.68
2022-11-19T19:26:00.588Z,12.52
2022-11-19T19:28:30.513Z,10.70
2022-11-19T19:31:02.813Z,11.27
2022-11-19T19:33:33.883Z,10.60
2022-11-19T19:36:08.230Z,10.63
2022-11-19T19:39:02.254Z,10.98
2022-11-19T19:41:32.044Z,11.98
2022-11-19T19:44:07.742Z,11.85
2022-11-19T19:46:37.265Z,11.25
2022-11-19T19:49:09.082Z,11.40
2022-11-19T19:51:49.388Z,12.43
2022-11-19T19:54:18.506Z,11.52
2022-11-19T19:56:51.066Z,12.80
2022-11-19T19:59:22.741Z,12.65
2022-11-19T20:01:51.802Z,13.13
2022-11-19T20:04:21.815Z,13.07
2022-11-19T20:06:56.160Z,17.25
2022-11-19T20:09:28.250Z,13.63
2022-11-19T20:11:57.325Z,13.07
2022-11-19T20:14:29.008Z,14.35
2022-11-19T20:17:03.244Z,12.85
2022-11-19T20:19:37.121Z,12.68
2022-11-19T20:22:07.523Z,12.32
2022-11-19T20:24:37.141Z,11.93
2022-11-19T20:27:17.693Z,12.48
2022-11-19T20:29:50.585Z,13.77
2022-11-19T20:32:19.876Z,15.57
2022-11-19T20:34:49.291Z,13.73
2022-11-19T20:37:19.596Z,15.13
2022-11-19T20:39:48.477Z,14.50
2022-11-19T20:42:35.003Z,12.93
2022-11-19T20:45:04.663Z,17.42
2022-11-19T20:47:33.959Z,21.63
2022-11-19T20:50:03.617Z,26.23
2022-11-19T20:52:34.706Z,57.63
2022-11-19T20:55:06.782Z,34.45
2022-11-19T20:57:35.875Z,30.92
2022-11-19T21:00:06.310Z,21.77
2022-11-19T21:02:35.494Z,17.33
2022-11-19T21:05:07.440Z,15.02
2022-11-19T21:07:37.640Z,14.90
2022-11-19T21:10:08.329Z,14.60
2022-11-19T21:12:57.928Z,15.10
2022-11-19T21:15:30.097Z,13.68
2022-11-19T21:17:59.453Z,14.52
2022-11-19T21:20:27.863Z,13.30
2022-11-19T21:22:58.227Z,14.10
2022-11-19T21:25:27.149Z,13.80
2022-11-19T21:27:55.608Z,14.07
2022-11-19T21:30:24.995Z,13.68
2022-11-19T21:32:55.013Z,18.02
2022-11-19T21:35:23.603Z,22.20
2022-11-19T21:37:53.288Z,15.27
2022-11-19T21:40:24.378Z,18.23
2022-11-19T21:42:54.671Z,15.95
2022-11-19T21:45:23.190Z,15.70
2022-11-19T21:47:51.748Z,13.50
2022-11-19T21:50:20.123Z,52.92
2022-11-19T21:52:48.945Z,28.73
2022-11-19T21:55:17.610Z,18.80
2022-11-19T21:57:47.818Z,19.33
2022-11-19T22:00:17.224Z,18.08
2022-11-19T22:02:47.326Z,17.70
2022-11-19T22:05:16.237Z,17.70
2022-11-19T22:07:46.560Z,18.95
2022-11-19T22:10:15.891Z,18.58
2022-11-19T22:12:46.523Z,18.02
2022-11-19T22:15:17.938Z,18.13
2022-11-19T22:17:48.133Z,17.33
2022-11-19T22:20:17.247Z,17.50
2022-11-19T22:22:46.669Z,17.92
2022-11-19T22:25:16.141Z,17.65
2022-11-19T22:27:44.689Z,17.80
2022-11-19T22:30:16.317Z,16.25
2022-11-19T22:32:45.100Z,19.38
2022-11-19T22:35:14.980Z,17.80
2022-11-19T22:37:45.130Z,18.58
2022-11-19T22:40:14.715Z,18.35
2022-11-19T22:42:43.290Z,18.83
2022-11-19T22:45:11.913Z,21.13
2022-11-19T22:47:42.851Z,20.83
2022-11-19T22:50:12.085Z,20.02
2022-11-19T22:52:41.950Z,18.67
2022-11-19T22:55:11.129Z,18.20
2022-11-19T22:57:39.743Z,18.70
2022-11-19T23:00:13.738Z,17.63
2022-11-19T23:02:44.601Z,17.80
2022-11-19T23:05:13.182Z,17.08
2022-11-19T23:07:41.906Z,17.25
2022-11-19T23:10:13.313Z,17.73
2022-11-19T23:12:59.097Z,17.63
2022-11-19T23:15:27.735Z,18.42
2022-11-19T23:17:58.223Z,18.55
2022-11-19T23:20:27.425Z,21.88
2022-11-19T23:22:55.802Z,20.92
2022-11-19T23:25:25.170Z,21.33
2022-11-19T23:27:53.846Z,24.88
2022-11-19T23:30:25.429Z,26.48
2022-11-19T23:33:06.129Z,22.80
2022-11-19T23:35:37.611Z,21.60
2022-11-19T23:38:06.538Z,21.27
2022-11-19T23:40:35.196Z,22.40
2022-11-19T23:43:04.171Z,19.80
2022-11-19T23:45:34.775Z,21.88
2022-11-19T23:48:03.926Z,21.92
2022-11-19T23:50:33.276Z,21.85
2022-11-19T23:53:03.625Z,21.10
2022-11-19T23:55:32.079Z,21.85
2022-11-19T23:58:00.495Z,19.75
